Terminal Aerodrome Forecast
Issued by NWS

Home | Current Version | Previous Version | Text Only | Print | Product List | Glossary On
Versions: 1 2 3 4 5 6 7 8 9 10 11 12 13 14
000
FTUS43 KGRR 262346
TAFJXN
TAF
KJXN 262346Z 2700/2724 21007KT P6SM SCT200
     FM270600 20003KT 5SM BR BKN200
     FM271000 VRB03KT 2SM BR BKN015
     FM271300 18006KT 5SM BR SCT030
     FM271500 19007KT P6SM SCT050
     FM271800 19008KT P6SM VCTS BKN050CB=

USA.gov is the U.S. government's official web portal to all federal, state and local government web resources and services.